Time;durP1;ratioP1;P1;durP2;ratioP2;P2;SDS_P1;SDS_P2;PMS_P1;PMS_P2;Temp;Humidity;BMP_temperature;BMP_pressure;BME280_temperature;BME280_humidity;BME280_pressure;Samples;Min_cycle;Max_cycle;Signal;HPM_P1;HPM_P2
2021/03/26 00:00:49;;;;;;;186.47;83.33;;;;;;;1.17;72.85;99344.58;2252198;79;21265;-83
2021/03/26 00:03:50;;;;;;;177.80;81.65;;;;;;;1.04;73.09;99348.00;2251864;79;21150;-83
2021/03/26 00:06:53;;;;;;;174.70;80.75;;;;;;;1.04;73.22;99343.30;2252337;79;21282;-83
2021/03/26 00:09:54;;;;;;;182.90;82.02;;;;;;;1.03;73.23;99339.91;2252138;79;21614;-83
2021/03/26 00:12:56;;;;;;;180.72;83.85;;;;;;;0.93;73.30;99335.02;2251838;79;21186;-83
2021/03/26 00:15:58;;;;;;;192.75;85.92;;;;;;;0.93;73.30;99337.59;2251800;79;21297;-82
2021/03/26 00:18:59;;;;;;;159.60;79.22;;;;;;;0.92;73.38;99338.98;2252069;79;21302;-84
2021/03/26 00:22:01;;;;;;;146.50;72.60;;;;;;;0.79;73.33;99350.56;2252022;79;21717;-84
2021/03/26 00:25:03;;;;;;;163.92;79.95;;;;;;;0.68;73.59;99340.15;2252078;79;21160;-82
2021/03/26 00:28:05;;;;;;;194.93;96.08;;;;;;;0.53;73.80;99336.36;2252199;79;21721;-82
2021/03/26 00:31:07;;;;;;;171.28;81.78;;;;;;;0.52;73.97;99341.16;2252021;79;21261;-83
2021/03/26 00:34:08;;;;;;;176.07;85.28;;;;;;;0.53;73.82;99338.94;2251891;79;21127;-82
2021/03/26 00:37:10;;;;;;;163.07;76.87;;;;;;;0.47;73.86;99334.67;2251848;79;21277;-83
2021/03/26 00:40:12;;;;;;;175.30;82.50;;;;;;;0.44;73.74;99334.84;2252519;79;21309;-79
2021/03/26 00:43:13;;;;;;;170.00;81.12;;;;;;;0.28;73.74;99329.42;2252740;79;21148;-83
2021/03/26 00:46:15;;;;;;;170.45;81.10;;;;;;;0.28;74.13;99333.75;2252050;79;21277;-82
2021/03/26 00:49:16;;;;;;;164.18;78.00;;;;;;;0.38;74.22;99336.09;2251963;79;21325;-82
2021/03/26 00:52:18;;;;;;;175.05;80.85;;;;;;;0.36;73.96;99328.91;2251896;79;21163;-82
2021/03/26 00:55:20;;;;;;;160.88;76.92;;;;;;;0.33;74.07;99327.83;2245643;79;21181;-79
2021/03/26 00:58:22;;;;;;;158.90;77.60;;;;;;;0.31;74.08;99330.97;2239672;80;21273;-79
2021/03/26 01:01:24;;;;;;;175.22;81.63;;;;;;;0.34;74.14;99328.19;2239747;80;21276;-79
2021/03/26 01:04:25;;;;;;;175.38;82.62;;;;;;;0.37;74.24;99324.14;2239243;80;21126;-83
2021/03/26 01:07:27;;;;;;;156.75;73.72;;;;;;;0.42;74.37;99329.80;2236811;80;21122;-82
2021/03/26 01:10:29;;;;;;;176.72;83.37;;;;;;;0.49;74.26;99331.05;2236645;80;21159;-83
2021/03/26 01:13:30;;;;;;;173.28;79.17;;;;;;;0.55;74.34;99328.55;2237190;80;21145;-82
2021/03/26 01:16:32;;;;;;;186.62;85.42;;;;;;;0.60;74.46;99330.34;2237076;80;21169;-82
2021/03/26 01:19:39;;;;;;;182.45;88.75;;;;;;;0.59;74.39;99326.12;2236943;80;21304;-83
2021/03/26 01:22:37;;;;;;;184.28;84.25;;;;;;;0.62;74.40;99332.81;2236093;79;21114;-83
2021/03/26 01:25:38;;;;;;;182.43;88.07;;;;;;;0.64;74.48;99330.52;2236763;80;21174;-82
2021/03/26 01:28:40;;;;;;;192.60;88.12;;;;;;;0.64;74.46;99330.95;2236608;80;21134;-83
2021/03/26 01:31:42;;;;;;;182.07;86.25;;;;;;;0.67;74.50;99328.19;2237073;80;21153;-82
2021/03/26 01:34:44;;;;;;;182.05;87.40;;;;;;;0.75;74.51;99327.22;2237126;80;21137;-86
2021/03/26 01:37:45;;;;;;;176.80;82.10;;;;;;;0.81;74.54;99330.66;2236814;80;21261;-82
2021/03/26 01:40:47;;;;;;;183.78;82.33;;;;;;;0.88;74.52;99333.66;2236795;80;21090;-83
2021/03/26 01:43:48;;;;;;;178.38;87.50;;;;;;;0.90;74.47;99331.33;2236727;80;21668;-84
2021/03/26 01:46:50;;;;;;;168.22;80.57;;;;;;;0.94;74.48;99331.97;2236787;80;21153;-83
2021/03/26 01:49:52;;;;;;;167.30;83.33;;;;;;;0.95;74.49;99333.14;2236839;80;21307;-84
2021/03/26 01:52:53;;;;;;;188.55;83.55;;;;;;;0.96;74.53;99330.92;2236484;80;21153;-84
2021/03/26 01:55:55;;;;;;;177.85;82.95;;;;;;;0.98;74.64;99326.95;2245485;79;21151;-83
2021/03/26 01:58:56;;;;;;;189.32;87.90;;;;;;;0.99;74.75;99328.13;2252151;79;21308;-84
2021/03/26 02:01:58;;;;;;;166.95;79.77;;;;;;;1.02;74.33;99328.41;2251669;79;21317;-83
2021/03/26 02:04:59;;;;;;;175.07;83.65;;;;;;;1.01;74.08;99329.34;2251857;79;21576;-84
2021/03/26 02:08:01;;;;;;;169.97;82.57;;;;;;;1.02;74.14;99326.66;2251665;79;21253;-83
2021/03/26 02:11:03;;;;;;;181.65;85.70;;;;;;;1.03;74.14;99333.45;2251804;79;21277;-84
2021/03/26 02:14:05;;;;;;;178.25;84.00;;;;;;;1.04;74.24;99323.97;2251813;79;21266;-83
2021/03/26 02:17:06;;;;;;;166.30;80.07;;;;;;;1.04;74.43;99327.36;2253118;79;21159;-81
2021/03/26 02:20:08;;;;;;;171.13;80.42;;;;;;;1.07;74.60;99329.73;2254378;79;21159;-83
2021/03/26 02:23:10;;;;;;;172.78;82.62;;;;;;;1.09;74.50;99328.33;2252040;79;21582;-84
2021/03/26 02:26:11;;;;;;;169.37;82.02;;;;;;;1.13;74.60;99331.08;2252144;79;21159;-85
2021/03/26 02:29:23;;;;;;;175.82;81.97;;;;;;;1.17;74.37;99329.92;2251841;79;21111;-84
2021/03/26 02:32:25;;;;;;;168.90;80.60;;;;;;;1.14;74.24;99331.44;2251706;79;21269;-84
2021/03/26 02:35:27;;;;;;;154.55;78.92;;;;;;;1.13;74.26;99329.32;2251762;79;21586;-84
2021/03/26 02:38:28;;;;;;;166.97;78.17;;;;;;;1.13;74.29;99331.90;2252004;79;21136;-85
2021/03/26 02:41:30;;;;;;;170.80;78.55;;;;;;;1.13;74.36;99324.16;2252065;79;21308;-83
2021/03/26 02:44:31;;;;;;;162.18;78.00;;;;;;;1.12;74.41;99330.72;2251893;79;21270;-83
2021/03/26 02:47:33;;;;;;;163.43;78.05;;;;;;;1.10;74.43;99326.95;2251655;79;21155;-84
2021/03/26 02:50:35;;;;;;;161.77;77.62;;;;;;;1.09;74.37;99330.91;2251857;79;21258;-84
2021/03/26 02:53:36;;;;;;;152.15;75.55;;;;;;;1.05;74.41;99330.30;2251872;79;21277;-83
2021/03/26 02:56:38;;;;;;;171.10;81.80;;;;;;;1.03;74.46;99342.48;2240729;79;21177;-83
2021/03/26 02:59:40;;;;;;;151.70;71.02;;;;;;;1.02;74.36;99332.28;2236524;80;21145;-83
2021/03/26 03:02:41;;;;;;;173.60;85.00;;;;;;;0.89;74.31;99333.55;2237359;80;21268;-83
2021/03/26 03:05:43;;;;;;;184.22;88.15;;;;;;;0.71;74.47;99333.02;2236492;80;21144;-84
2021/03/26 03:08:44;;;;;;;175.40;86.97;;;;;;;0.72;74.66;99334.67;2236533;80;21299;-83
2021/03/26 03:11:46;;;;;;;151.60;75.92;;;;;;;0.71;74.76;99334.31;2236820;80;21546;-82
2021/03/26 03:14:48;;;;;;;152.47;74.58;;;;;;;0.65;74.66;99339.90;2236881;80;21300;-83
2021/03/26 03:17:49;;;;;;;160.00;76.40;;;;;;;0.48;74.68;99341.47;2236863;80;21161;-84
2021/03/26 03:20:51;;;;;;;173.53;82.53;;;;;;;0.34;74.90;99339.78;2236985;80;21287;-83
2021/03/26 03:23:53;;;;;;;162.35;79.53;;;;;;;0.30;75.12;99338.34;2236970;80;21180;-83
2021/03/26 03:26:54;;;;;;;152.95;75.50;;;;;;;0.35;75.26;99342.72;2236971;80;21299;-83
2021/03/26 03:29:56;;;;;;;156.10;76.67;;;;;;;0.40;75.08;99339.39;2237049;80;21308;-83
2021/03/26 03:32:57;;;;;;;167.95;78.07;;;;;;;0.47;75.02;99342.40;2237107;80;21711;-83
2021/03/26 03:35:59;;;;;;;164.93;78.33;;;;;;;0.49;74.95;99341.83;2237247;80;21720;-84
2021/03/26 03:39:00;;;;;;;168.05;76.77;;;;;;;0.49;74.93;99349.56;2237112;79;21161;-83
2021/03/26 03:42:02;;;;;;;158.05;77.67;;;;;;;0.48;75.01;99349.20;2236949;79;21267;-83
2021/03/26 03:45:03;;;;;;;163.77;76.72;;;;;;;0.48;75.08;99357.75;2237000;80;21421;-85
2021/03/26 03:48:05;;;;;;;175.22;81.37;;;;;;;0.46;75.26;99350.59;2237005;80;21562;-83
2021/03/26 03:51:07;;;;;;;165.35;77.53;;;;;;;0.46;75.20;99354.45;2236721;80;21251;-84
2021/03/26 03:54:08;;;;;;;157.62;75.92;;;;;;;0.48;75.23;99362.09;2236630;80;21118;-84
2021/03/26 03:57:10;;;;;;;166.85;79.85;;;;;;;0.51;75.21;99363.98;2249391;79;21321;-84
2021/03/26 04:00:12;;;;;;;160.48;77.70;;;;;;;0.45;75.13;99359.22;2252621;79;21166;-83
2021/03/26 04:03:13;;;;;;;155.70;76.47;;;;;;;0.42;75.25;99359.44;2252058;79;21147;-84
2021/03/26 04:06:15;;;;;;;167.20;76.95;;;;;;;0.42;75.27;99368.91;2251923;79;21262;-84
2021/03/26 04:09:16;;;;;;;201.58;92.57;;;;;;;0.42;75.24;99362.47;2252258;79;21576;-85
2021/03/26 04:12:18;;;;;;;216.78;98.07;;;;;;;0.36;75.34;99374.45;2252672;79;21352;-83
2021/03/26 04:15:20;;;;;;;168.10;86.15;;;;;;;0.34;75.49;99372.44;2251979;79;21178;-83
2021/03/26 04:18:21;;;;;;;164.90;78.17;;;;;;;0.31;75.28;99377.80;2252248;79;21535;-83
2021/03/26 04:21:24;;;;;;;171.37;82.82;;;;;;;0.30;75.22;99374.87;2252374;79;21582;-83
2021/03/26 04:24:26;;;;;;;164.13;77.75;;;;;;;0.24;75.33;99382.05;2252372;79;21630;-83
2021/03/26 04:27:28;;;;;;;166.73;80.65;;;;;;;0.25;75.43;99377.26;2252347;79;21166;-83
2021/03/26 04:30:29;;;;;;;182.40;88.67;;;;;;;0.25;75.37;99373.39;2252364;79;21135;-84
2021/03/26 04:33:31;;;;;;;200.22;92.90;;;;;;;0.28;75.37;99374.51;2252610;79;21273;-83
2021/03/26 04:36:32;;;;;;;196.50;93.17;;;;;;;0.29;75.42;99370.18;2251985;79;21163;-82
2021/03/26 04:39:34;;;;;;;189.93;87.30;;;;;;;0.32;75.46;99364.00;2252182;79;21282;-84
2021/03/26 04:42:36;;;;;;;170.25;80.17;;;;;;;0.38;75.43;99372.62;2251772;79;21309;-84
2021/03/26 04:45:38;;;;;;;166.53;76.95;;;;;;;0.43;75.20;99367.98;2251667;79;21817;-83
2021/03/26 04:48:40;;;;;;;161.62;79.82;;;;;;;0.49;75.09;99364.55;2252071;79;21171;-83
2021/03/26 04:51:45;;;;;;;168.97;79.03;;;;;;;0.53;75.13;99367.28;2251947;79;21123;-83
2021/03/26 04:54:45;;;;;;;168.50;80.77;;;;;;;0.60;75.42;99370.30;2251917;79;21566;-83
2021/03/26 04:57:46;;;;;;;167.80;79.30;;;;;;;0.69;75.30;99372.27;2237471;79;21154;-82
2021/03/26 05:00:48;;;;;;;166.75;82.42;;;;;;;0.77;75.18;99372.59;2236971;80;21142;-82
2021/03/26 05:03:50;;;;;;;196.95;87.08;;;;;;;0.91;75.23;99374.23;2236566;80;21182;-82
2021/03/26 05:06:51;;;;;;;233.57;103.87;;;;;;;1.02;75.21;99375.66;2236901;80;21319;-83
2021/03/26 05:09:53;;;;;;;224.32;102.82;;;;;;;1.10;75.02;99379.84;2236622;80;21162;-82
2021/03/26 05:12:55;;;;;;;220.27;99.13;;;;;;;1.26;75.02;99386.05;2236875;80;21094;-83
2021/03/26 05:15:56;;;;;;;217.53;98.00;;;;;;;1.40;74.88;99392.87;2237416;80;21291;-82
2021/03/26 05:18:58;;;;;;;243.07;108.95;;;;;;;1.58;74.85;99387.73;2238196;80;21276;-79
2021/03/26 05:22:00;;;;;;;258.15;114.72;;;;;;;1.78;74.71;99396.66;2239011;80;21574;-83
2021/03/26 05:25:01;;;;;;;300.02;131.22;;;;;;;1.95;74.46;99398.89;2236800;80;22121;-84
2021/03/26 05:28:03;;;;;;;341.80;142.95;;;;;;;2.09;74.03;99396.61;2237020;80;21280;-83
2021/03/26 05:31:05;;;;;;;341.82;150.32;;;;;;;2.12;73.95;99407.22;2236757;80;21573;-83
2021/03/26 05:34:06;;;;;;;337.32;144.87;;;;;;;2.18;73.85;99390.78;2236806;80;21542;-83
2021/03/26 05:37:08;;;;;;;360.45;150.42;;;;;;;2.24;73.97;99396.81;2236817;80;21601;-83
2021/03/26 05:40:10;;;;;;;352.77;148.72;;;;;;;2.35;73.77;99396.51;2236562;80;21165;-83
2021/03/26 05:43:12;;;;;;;321.75;139.05;;;;;;;2.48;73.98;99397.28;2236669;80;21154;-82
2021/03/26 05:46:14;;;;;;;341.55;152.45;;;;;;;2.62;73.85;99393.67;2236919;80;21468;-83
2021/03/26 05:49:15;;;;;;;305.27;139.22;;;;;;;2.73;73.78;99392.41;2236539;80;21137;-84
2021/03/26 05:52:17;;;;;;;245.35;113.65;;;;;;;2.85;73.48;99395.41;2236552;80;21114;-84
2021/03/26 05:55:18;;;;;;;249.85;117.10;;;;;;;3.02;73.55;99396.73;2236947;79;21169;-84
2021/03/26 05:58:20;;;;;;;277.90;121.82;;;;;;;3.16;73.36;99395.69;2251893;79;21277;-82
2021/03/26 06:01:22;;;;;;;237.02;111.88;;;;;;;3.21;73.17;99400.05;2252032;79;22247;-81
2021/03/26 06:04:23;;;;;;;263.30;121.47;;;;;;;3.30;73.12;99394.18;2252087;79;21155;-83
2021/03/26 06:07:25;;;;;;;283.30;134.70;;;;;;;3.42;73.02;99399.23;2251947;79;21123;-85
2021/03/26 06:10:27;;;;;;;373.18;161.80;;;;;;;3.57;72.86;99402.42;2251615;79;21143;-85
2021/03/26 06:13:31;;;;;;;484.18;206.93;;;;;;;3.68;72.73;99392.05;2251900;79;21261;-82
2021/03/26 06:16:33;;;;;;;365.48;156.18;;;;;;;3.75;72.75;99396.30;2252107;79;21285;-83
2021/03/26 06:19:35;;;;;;;300.10;136.20;;;;;;;3.96;72.72;99392.48;2251763;79;21728;-83
2021/03/26 06:22:36;;;;;;;221.05;108.52;;;;;;;4.08;72.58;99393.27;2251658;79;21155;-82
2021/03/26 06:25:38;;;;;;;222.30;107.90;;;;;;;4.20;72.34;99398.30;2251863;79;21179;-84
2021/03/26 06:28:40;;;;;;;199.40;101.05;;;;;;;4.33;72.36;99398.16;2251958;79;21721;-85
2021/03/26 06:31:41;;;;;;;185.93;93.15;;;;;;;4.55;72.53;99404.54;2251775;79;21729;-84
2021/03/26 06:34:43;;;;;;;227.62;110.65;;;;;;;4.69;72.31;99405.20;2251828;79;21606;-84
2021/03/26 06:37:45;;;;;;;258.07;122.20;;;;;;;4.80;72.41;99405.14;2252052;79;21278;-83
2021/03/26 06:40:46;;;;;;;256.05;120.55;;;;;;;4.96;72.36;99404.23;2251699;79;21158;-84
2021/03/26 06:43:48;;;;;;;207.03;103.72;;;;;;;5.14;72.77;99406.59;2251982;79;21312;-83
2021/03/26 06:46:50;;;;;;;180.57;96.70;;;;;;;5.35;72.83;99407.04;2252313;79;21305;-85
2021/03/26 06:49:51;;;;;;;189.18;98.35;;;;;;;5.56;72.49;99405.69;2251868;79;21598;-83
2021/03/26 06:52:53;;;;;;;206.57;108.97;;;;;;;5.75;72.08;99402.34;2251718;79;21301;-81
2021/03/26 06:55:55;;;;;;;227.25;110.52;;;;;;;6.02;71.78;99408.26;2251816;79;21273;-83
2021/03/26 06:58:57;;;;;;;211.92;111.12;;;;;;;6.20;71.65;99412.67;2251684;79;21242;-87
2021/03/26 07:01:58;;;;;;;190.40;99.67;;;;;;;6.40;71.45;99418.75;2251900;79;21320;-82
2021/03/26 07:05:00;;;;;;;183.57;97.40;;;;;;;6.59;71.25;99419.23;2251992;79;21321;-83
2021/03/26 07:08:01;;;;;;;171.77;90.75;;;;;;;6.70;71.16;99425.59;2251951;79;21334;-84
2021/03/26 07:11:03;;;;;;;170.57;92.42;;;;;;;6.82;71.08;99420.58;2251637;79;21278;-83
2021/03/26 07:14:05;;;;;;;177.12;94.95;;;;;;;7.01;71.19;99427.55;2251581;79;21568;-84
2021/03/26 07:17:06;;;;;;;166.20;93.00;;;;;;;7.29;71.15;99436.26;2251540;79;21286;-84
2021/03/26 07:20:08;;;;;;;181.57;95.38;;;;;;;7.55;70.59;99433.86;2253155;79;21796;-81
2021/03/26 07:23:09;;;;;;;167.32;92.82;;;;;;;7.77;70.28;99435.27;2252029;79;21095;-85
2021/03/26 07:26:11;;;;;;;157.35;84.75;;;;;;;7.96;69.81;99436.99;2251413;79;21111;-84
2021/03/26 07:29:29;;;;;;;170.72;91.42;;;;;;;8.08;69.12;99437.13;2251844;79;21269;-84
2021/03/26 07:32:31;;;;;;;163.05;93.12;;;;;;;8.15;69.42;99436.06;2251911;79;21270;-81
2021/03/26 07:35:32;;;;;;;159.87;94.52;;;;;;;8.40;69.44;99434.54;2251882;79;21301;-83
2021/03/26 07:38:34;;;;;;;164.28;92.47;;;;;;;8.62;68.97;99430.20;2251814;79;21301;-84
2021/03/26 07:41:35;;;;;;;151.93;88.07;;;;;;;8.78;68.59;99432.14;2251868;79;21288;-83
2021/03/26 07:44:40;;;;;;;149.85;89.07;;;;;;;8.94;68.83;99436.17;2252124;79;21618;-82
2021/03/26 07:47:41;;;;;;;141.00;82.65;;;;;;;9.11;68.24;99425.36;2252563;79;21274;-84
2021/03/26 07:50:43;;;;;;;146.55;84.20;;;;;;;9.26;67.99;99426.94;2252299;79;21171;-82
2021/03/26 07:53:45;;;;;;;146.22;81.42;;;;;;;9.46;67.95;99420.52;2252821;79;21301;-81
2021/03/26 07:56:49;;;;;;;133.93;77.53;;;;;;;9.63;66.95;99427.48;2252312;79;21749;-82
2021/03/26 07:59:51;;;;;;;129.10;77.60;;;;;;;9.79;66.57;99424.62;2251966;79;21717;-83
2021/03/26 08:02:52;;;;;;;108.37;65.20;;;;;;;9.95;66.15;99422.05;2251722;79;21155;-84
2021/03/26 08:05:54;;;;;;;102.70;61.35;;;;;;;10.06;65.95;99425.70;2251541;79;21289;-83
2021/03/26 08:08:56;;;;;;;102.00;63.25;;;;;;;10.22;64.95;99422.32;2251697;79;21308;-82
2021/03/26 08:11:58;;;;;;;103.32;62.55;;;;;;;10.38;65.51;99424.98;2251767;79;21310;-83
2021/03/26 08:15:00;;;;;;;102.20;59.77;;;;;;;10.57;65.46;99430.41;2251772;79;21171;-83
2021/03/26 08:18:01;;;;;;;93.58;57.33;;;;;;;10.75;64.55;99438.13;2251985;79;21277;-84
2021/03/26 08:21:03;;;;;;;85.20;52.43;;;;;;;10.97;64.66;99445.81;2253897;79;21162;-80
2021/03/26 08:24:05;;;;;;;89.07;55.50;;;;;;;11.13;63.48;99438.44;2254573;79;21281;-83
2021/03/26 08:27:08;;;;;;;83.05;51.65;;;;;;;11.29;63.88;99445.80;2252244;79;21281;-84
2021/03/26 08:30:09;;;;;;;81.37;51.83;;;;;;;11.44;63.17;99442.02;2251635;79;21158;-83
2021/03/26 08:33:11;;;;;;;94.55;59.08;;;;;;;11.59;62.20;99448.19;2251630;79;21273;-84
2021/03/26 08:36:13;;;;;;;85.70;53.40;;;;;;;11.82;62.42;99450.95;2252001;79;21298;-84
2021/03/26 08:39:14;;;;;;;82.30;53.48;;;;;;;12.07;62.22;99450.36;2252024;79;21174;-83
2021/03/26 08:42:16;;;;;;;84.50;52.27;;;;;;;12.28;60.73;99448.95;2251716;79;21306;-82
2021/03/26 08:45:18;;;;;;;72.05;46.30;;;;;;;12.47;60.01;99452.44;2252127;79;21317;-82
2021/03/26 08:48:19;;;;;;;75.85;48.15;;;;;;;12.67;59.49;99451.48;2251696;79;21151;-84
2021/03/26 08:51:21;;;;;;;58.20;39.80;;;;;;;12.88;55.13;99456.09;2251662;79;21285;-82
2021/03/26 08:54:23;;;;;;;64.12;42.30;;;;;;;13.07;57.59;99455.13;2251882;79;21309;-83
2021/03/26 08:57:26;;;;;;;73.92;50.38;;;;;;;13.32;56.61;99447.03;2251475;79;21270;-83
2021/03/26 09:00:29;;;;;;;66.28;43.63;;;;;;;13.32;56.61;99447.03;2251747;79;21289;-84
2021/03/26 09:03:31;;;;;;;62.10;42.27;;;;;;;13.44;55.69;99448.72;2251714;79;21278;-83
2021/03/26 09:06:34;;;;;;;62.03;42.88;;;;;;;13.48;54.87;99455.27;2251624;79;21816;-83
2021/03/26 09:09:36;;;;;;;56.83;39.50;;;;;;;13.48;54.87;99455.27;2251678;79;21266;-84
2021/03/26 09:12:37;;;;;;;57.05;38.48;;;;;;;13.64;52.27;99466.95;2252247;79;21304;-84
2021/03/26 09:15:39;;;;;;;61.55;39.95;;;;;;;13.64;52.27;99466.95;2252001;79;21099;-84
2021/03/26 09:18:40;;;;;;;58.35;40.67;;;;;;;13.66;52.82;99459.18;2251830;79;21695;-84
2021/03/26 09:21:42;;;;;;;67.25;45.00;;;;;;;13.75;52.16;99468.30;2252116;79;21758;-83
2021/03/26 09:24:44;;;;;;;64.75;42.33;;;;;;;13.65;51.98;99469.39;2252161;79;21172;-82
2021/03/26 09:27:45;;;;;;;61.98;41.73;;;;;;;13.61;52.44;99469.42;2251579;79;21293;-84
2021/03/26 09:30:47;;;;;;;63.50;39.35;;;;;;;13.54;52.09;99475.11;2251595;79;21262;-84
2021/03/26 09:33:49;;;;;;;59.65;38.55;;;;;;;13.47;52.21;99470.23;2251598;79;21709;-83
2021/03/26 09:36:50;;;;;;;61.73;39.42;;;;;;;13.42;51.61;99470.45;2251878;79;21713;-83
2021/03/26 09:39:52;;;;;;;56.10;37.80;;;;;;;13.31;51.47;99473.83;2252154;79;21178;-83
2021/03/26 09:42:54;;;;;;;53.87;35.88;;;;;;;13.21;50.71;99474.59;2251890;79;21578;-82
2021/03/26 09:45:55;;;;;;;54.05;36.85;;;;;;;13.18;51.66;99469.66;2251905;79;21591;-83
2021/03/26 09:48:58;;;;;;;53.40;35.10;;;;;;;13.17;51.21;99468.03;2251488;79;21285;-83
2021/03/26 09:51:59;;;;;;;53.68;36.55;;;;;;;13.12;51.11;99468.23;2251561;79;21273;-83
2021/03/26 09:55:01;;;;;;;52.40;34.20;;;;;;;13.01;50.88;99462.41;2251569;79;21749;-82
2021/03/26 09:58:03;;;;;;;52.08;35.48;;;;;;;12.91;49.89;99465.77;2242952;78;21331;-83
2021/03/26 10:01:04;;;;;;;57.80;36.28;;;;;;;12.84;50.97;99465.33;2236770;80;21307;-83
2021/03/26 10:04:06;;;;;;;58.48;38.53;;;;;;;12.80;51.24;99464.84;2236876;80;21697;-83
2021/03/26 10:07:17;;;;;;;60.28;38.92;;;;;;;12.77;51.41;99459.45;2236721;80;21146;-84
2021/03/26 10:13:38;;;;;;;61.35;38.42;;;;;;;12.69;51.30;99462.13;2236355;79;21192;-84
2021/03/26 10:16:40;;;;;;;56.80;36.45;;;;;;;12.66;51.20;99463.80;2236993;80;21608;-83
2021/03/26 10:19:41;;;;;;;55.17;35.03;;;;;;;12.60;50.90;99467.13;2236705;80;21150;-83
2021/03/26 10:22:43;;;;;;;50.67;34.38;;;;;;;12.54;51.04;99470.46;2236883;80;21295;-84
2021/03/26 10:25:45;;;;;;;55.08;34.10;;;;;;;12.51;50.64;99470.79;2236711;80;21157;-85
2021/03/26 10:28:49;;;;;;;50.38;33.05;;;;;;;12.44;50.49;99466.75;2236474;80;21145;-83
2021/03/26 10:31:50;;;;;;;52.73;31.10;;;;;;;12.40;50.22;99464.12;2236564;80;21291;-83
2021/03/26 10:34:52;;;;;;;53.02;33.18;;;;;;;12.36;50.66;99458.09;2236533;80;21272;-85
2021/03/26 10:37:54;;;;;;;50.38;32.05;;;;;;;12.35;50.58;99463.84;2236547;80;21295;-84
2021/03/26 10:40:56;;;;;;;55.12;35.20;;;;;;;12.32;50.28;99462.86;2236965;80;21303;-83
2021/03/26 10:43:57;;;;;;;53.42;33.40;;;;;;;12.30;50.36;99458.28;2236533;80;21118;-84
2021/03/26 10:46:59;;;;;;;55.03;34.98;;;;;;;12.32;50.14;99465.48;2236807;80;21121;-84
2021/03/26 10:50:02;;;;;;;65.17;38.53;;;;;;;12.41;50.06;99460.50;2236876;80;21122;-83
2021/03/26 10:53:05;;;;;;;69.15;42.38;;;;;;;12.54;50.01;99461.27;2236773;80;21146;-83
2021/03/26 10:56:06;;;;;;;64.05;39.85;;;;;;;12.75;48.88;99460.63;2236694;80;21704;-83
2021/03/26 10:59:08;;;;;;;67.60;40.83;;;;;;;12.98;50.10;99452.22;2236415;79;21126;-82
2021/03/26 11:02:10;;;;;;;61.55;40.52;;;;;;;13.24;49.31;99447.92;2236800;80;21661;-84
2021/03/26 11:05:12;;;;;;;57.08;37.33;;;;;;;13.48;48.85;99446.88;2236891;80;21439;-84
2021/03/26 11:08:13;;;;;;;55.90;36.28;;;;;;;13.73;48.42;99449.25;2237179;80;21700;-84
2021/03/26 11:11:16;;;;;;;63.60;40.45;;;;;;;13.94;47.51;99447.50;2236580;80;21158;-84
2021/03/26 11:14:18;;;;;;;57.85;35.83;;;;;;;14.00;44.62;99427.54;2236529;80;21169;-84
2021/03/26 11:17:19;;;;;;;57.85;33.33;;;;;;;14.12;46.92;99438.41;2236999;80;21292;-84
2021/03/26 11:20:22;;;;;;;45.17;30.50;;;;;;;14.24;46.55;99437.73;2236664;80;21130;-83
2021/03/26 11:23:25;;;;;;;39.58;27.37;;;;;;;14.45;46.52;99437.00;2236488;79;21609;-82
2021/03/26 11:26:27;;;;;;;45.38;29.50;;;;;;;14.67;45.99;99433.86;2236838;80;21252;-83
2021/03/26 11:29:28;;;;;;;42.53;29.52;;;;;;;14.88;44.99;99434.85;2236528;80;21172;-83
2021/03/26 11:32:32;;;;;;;42.03;28.50;;;;;;;15.04;44.51;99434.09;2236842;80;21296;-83
2021/03/26 11:35:33;;;;;;;47.85;31.02;;;;;;;15.23;44.01;99426.52;2237566;80;21619;-84
2021/03/26 11:38:35;;;;;;;42.65;30.50;;;;;;;15.35;40.99;99425.78;2237880;80;21268;-84
2021/03/26 11:41:37;;;;;;;42.48;29.30;;;;;;;15.42;43.26;99423.20;2236915;80;21303;-82
2021/03/26 11:44:39;;;;;;;42.25;28.98;;;;;;;15.57;42.38;99415.98;2236599;80;21583;-83
2021/03/26 11:47:40;;;;;;;38.78;27.05;;;;;;;15.67;41.17;99415.66;2236806;80;21157;-82
2021/03/26 11:50:42;;;;;;;40.83;27.98;;;;;;;15.76;41.31;99409.21;2237254;80;21299;-82
2021/03/26 11:53:44;;;;;;;42.53;29.25;;;;;;;15.79;40.72;99410.12;2236788;80;21739;-82
2021/03/26 11:56:46;;;;;;;42.85;30.05;;;;;;;15.77;40.69;99408.20;2237231;80;21307;-83
2021/03/26 11:59:47;;;;;;;44.23;29.02;;;;;;;15.83;40.98;99406.10;2251485;79;21269;-83
2021/03/26 12:02:49;;;;;;;42.75;28.62;;;;;;;15.92;40.56;99407.56;2251692;79;21250;-83
2021/03/26 12:05:51;;;;;;;42.62;28.77;;;;;;;15.88;39.59;99405.50;2252181;79;21298;-83
2021/03/26 12:08:52;;;;;;;43.02;29.30;;;;;;;15.82;40.55;99403.66;2251726;79;21179;-83
2021/03/26 12:11:54;;;;;;;47.27;31.30;;;;;;;15.89;40.78;99394.73;2251760;79;21784;-82
2021/03/26 12:14:56;;;;;;;39.50;29.15;;;;;;;15.93;40.25;99388.06;2251958;79;21321;-83
2021/03/26 12:17:57;;;;;;;37.80;26.15;;;;;;;16.03;39.13;99382.41;2251876;79;21706;-83
2021/03/26 12:20:59;;;;;;;38.10;26.37;;;;;;;16.08;38.94;99378.65;2251646;79;21270;-83
2021/03/26 12:24:01;;;;;;;39.85;28.35;;;;;;;16.10;39.48;99377.97;2251849;79;21143;-82
2021/03/26 12:27:02;;;;;;;39.75;27.90;;;;;;;16.18;40.63;99371.19;2251945;79;21333;-82
2021/03/26 12:30:04;;;;;;;36.15;26.33;;;;;;;16.19;38.93;99370.67;2251790;79;21305;-83
2021/03/26 12:33:07;;;;;;;40.38;27.17;;;;;;;16.17;39.87;99369.53;2251856;79;21159;-82
2021/03/26 12:36:09;;;;;;;38.25;26.82;;;;;;;16.22;40.06;99363.66;2251828;79;21558;-82
2021/03/26 12:39:11;;;;;;;36.60;26.23;;;;;;;16.16;38.25;99351.23;2251642;79;21736;-83
2021/03/26 12:42:13;;;;;;;40.80;27.77;;;;;;;16.01;38.24;99353.25;2252281;79;21167;-83
2021/03/26 12:45:14;;;;;;;40.83;27.42;;;;;;;15.84;38.73;99350.14;2251844;79;21285;-83
2021/03/26 12:48:16;;;;;;;41.55;27.00;;;;;;;15.83;38.95;99347.20;2251853;79;21305;-82
2021/03/26 12:51:18;;;;;;;42.23;28.85;;;;;;;15.81;38.67;99347.38;2251849;79;21301;-82
2021/03/26 12:54:19;;;;;;;39.42;27.95;;;;;;;15.82;39.04;99344.25;2252158;79;22360;-82
2021/03/26 12:57:21;;;;;;;41.08;27.48;;;;;;;15.80;38.86;99334.38;2251924;79;21254;-82
2021/03/26 13:00:23;;;;;;;38.55;24.75;;;;;;;15.73;39.01;99334.38;2251880;79;21155;-82
2021/03/26 13:03:25;;;;;;;46.02;29.52;;;;;;;15.62;38.87;99331.77;2251665;79;21544;-81
2021/03/26 13:06:27;;;;;;;40.25;28.50;;;;;;;15.42;38.20;99332.66;2251419;79;21262;-83
2021/03/26 13:09:29;;;;;;;41.15;28.38;;;;;;;15.36;39.58;99335.09;2251293;79;21273;-83
2021/03/26 13:12:31;;;;;;;46.77;28.73;;;;;;;15.36;39.14;99329.81;2251955;79;21276;-83
2021/03/26 13:15:33;;;;;;;36.35;26.62;;;;;;;15.34;39.44;99325.21;2251787;79;21746;-83
2021/03/26 13:18:34;;;;;;;44.63;29.80;;;;;;;15.36;39.43;99328.49;2251875;79;21155;-82
2021/03/26 13:21:36;;;;;;;40.43;28.00;;;;;;;15.33;39.61;99326.73;2251745;79;21159;-83
2021/03/26 13:24:37;;;;;;;42.93;30.23;;;;;;;15.32;40.04;99321.96;2251793;79;21191;-83
2021/03/26 13:27:39;;;;;;;44.00;30.00;;;;;;;15.24;39.27;99318.16;2252007;79;21131;-83
2021/03/26 13:30:42;;;;;;;41.95;28.75;;;;;;;15.11;39.62;99312.83;2251734;79;21309;-82
2021/03/26 13:33:44;;;;;;;46.18;31.35;;;;;;;15.03;39.79;99320.89;2251706;79;21733;-82
2021/03/26 13:36:46;;;;;;;45.17;29.48;;;;;;;14.95;40.39;99319.72;2251795;79;21301;-82
2021/03/26 13:39:47;;;;;;;51.35;32.67;;;;;;;14.90;40.46;99317.64;2251689;79;21285;-82
2021/03/26 13:42:49;;;;;;;48.50;32.03;;;;;;;14.85;40.62;99314.78;2251943;79;21531;-82
2021/03/26 13:45:51;;;;;;;54.18;31.95;;;;;;;14.83;41.35;99322.08;2251582;79;21301;-81
2021/03/26 13:48:53;;;;;;;51.88;29.87;;;;;;;14.79;41.15;99311.08;2252010;79;21301;-81
2021/03/26 13:51:54;;;;;;;48.42;32.17;;;;;;;14.74;40.56;99316.64;2252266;79;21313;-79
2021/03/26 13:54:56;;;;;;;45.83;29.25;;;;;;;14.59;41.12;99306.67;2251828;79;21711;-79
2021/03/26 13:57:58;;;;;;;45.75;29.50;;;;;;;14.43;41.06;99300.63;2248765;79;21150;-80